Startpagina
METAR-TAF:

METAR-TAF

Vliegvelden :

Goeree Le, Nederland

Productieplatform

breedte: 51-55-33N, lengte: 3-40-12E, hoogte: 19 m

Actueel weer

Dit bericht is 32 minuten geleden gemaakt, om 07:55 UTC
Wind 11 kt uit het zuidoosten
Temperatuur 14°C
Vochtigheid 77%
Druk 1011 hPa
Zicht: 9000 m

METAR: EHSC 220755Z AUTO 13011KT 9000 ///////// 14/10 Q1011 W08/H2

Tijdstip: 10:27 (08:27 UTC)


TAF: ontbreekt

Waarnemingen en weersverwachtingen van meer dan 4000 vliegvelden (METAR en TAF).

De beschikbare stations zijn de gele en rode punten op de kaart.

Ga met uw muis naar het station om de naam te zien.

Klik dan om waarnemingen en weersverwachtingen te zien.

kaart wijzigen: klik op de groene knoppen met een zwart kruis om in te zoomen, op de groene knop met een streepje om uit te zoomen of op de groene pijlen voor aangrenzende kaarten.


METAR-TAF: